Time;durP1;ratioP1;P1;durP2;ratioP2;P2;SDS_P1;SDS_P2;PMS_P1;PMS_P2;Temp;Humidity;BMP_temperature;BMP_pressure;BME280_temperature;BME280_humidity;BME280_pressure;Samples;Min_cycle;Max_cycle;Signal;HPM_P1;HPM_P2
2021/07/31 00:00:24;;;;;;;8.18;5.35;;;18.60;99.90;;;;;;1956168;73;21540;-79
2021/07/31 00:02:50;;;;;;;6.83;5.33;;;18.60;99.90;;;;;;1956238;73;21404;-79
2021/07/31 00:05:17;;;;;;;6.05;4.80;;;18.60;99.90;;;;;;1956025;73;21530;-79
2021/07/31 00:07:43;;;;;;;6.62;5.30;;;18.60;99.90;;;;;;1955953;73;21614;-80
2021/07/31 00:10:09;;;;;;;6.90;5.83;;;18.50;99.90;;;;;;1962154;71;21552;-79
2021/07/31 00:12:35;;;;;;;5.85;5.28;;;18.60;99.90;;;;;;1956030;73;21065;-80
2021/07/31 00:15:01;;;;;;;8.18;6.08;;;18.60;99.90;;;;;;1962242;72;21475;-80
2021/07/31 00:17:27;;;;;;;10.05;4.87;;;18.70;99.90;;;;;;1956199;73;21079;-80
2021/07/31 00:19:53;;;;;;;7.15;5.08;;;18.70;99.90;;;;;;1956307;73;21051;-80
2021/07/31 00:22:19;;;;;;;5.90;4.75;;;18.70;99.90;;;;;;1956198;73;21072;-80
2021/07/31 00:24:47;;;;;;;7.00;4.87;;;18.70;99.90;;;;;;1956268;73;21133;-81
2021/07/31 00:27:13;;;;;;;7.20;5.70;;;18.80;99.90;;;;;;1956193;72;21070;-80
2021/07/31 00:29:39;;;;;;;5.65;4.72;;;18.80;99.90;;;;;;1956150;73;21177;-81
2021/07/31 00:32:06;;;;;;;7.30;4.75;;;18.90;99.90;;;;;;1956099;73;21076;-80
2021/07/31 00:34:33;;;;;;;7.08;5.37;;;18.80;99.90;;;;;;1956239;72;21087;-80
2021/07/31 00:36:59;;;;;;;4.53;4.12;;;18.90;99.90;;;;;;1956411;73;21016;-80
2021/07/31 00:39:25;;;;;;;8.08;5.62;;;18.90;99.90;;;;;;1956342;73;21084;-80
2021/07/31 00:41:51;;;;;;;5.80;5.05;;;19.00;99.90;;;;;;1956529;73;21084;-80
2021/07/31 00:44:17;;;;;;;11.30;4.75;;;19.00;99.90;;;;;;1956779;72;21148;-80
2021/07/31 00:46:43;;;;;;;6.05;5.15;;;19.00;99.90;;;;;;1956699;73;21047;-80
2021/07/31 00:49:09;;;;;;;7.62;5.42;;;19.00;99.90;;;;;;1956613;72;21059;-80
2021/07/31 00:51:36;;;;;;;5.50;4.90;;;19.00;99.90;;;;;;1956482;73;21132;-81
2021/07/31 00:54:02;;;;;;;5.72;5.12;;;19.10;99.90;;;;;;1956567;73;21084;-80
2021/07/31 00:56:28;;;;;;;6.72;4.67;;;19.10;99.90;;;;;;1956649;72;21054;-79
2021/07/31 00:58:54;;;;;;;9.15;5.50;;;19.10;99.90;;;;;;1956041;73;21056;-80
2021/07/31 01:01:20;;;;;;;5.33;4.80;;;19.10;99.90;;;;;;1956047;73;21487;-80
2021/07/31 01:03:47;;;;;;;8.40;5.40;;;19.10;99.90;;;;;;1958972;72;21084;-80
2021/07/31 01:06:13;;;;;;;5.97;4.72;;;19.00;99.90;;;;;;1959729;72;21065;-79
2021/07/31 01:08:39;;;;;;;9.58;5.25;;;19.00;99.90;;;;;;1956680;73;21035;-80
2021/07/31 01:11:05;;;;;;;8.93;4.75;;;19.00;99.90;;;;;;1956046;72;21090;-80
2021/07/31 01:13:31;;;;;;;9.38;5.53;;;19.00;99.90;;;;;;1956030;73;21117;-79
2021/07/31 01:15:57;;;;;;;5.08;4.58;;;19.00;99.90;;;;;;1956118;73;21131;-80
2021/07/31 01:18:24;;;;;;;5.25;4.75;;;19.00;99.90;;;;;;1956062;73;21128;-80
2021/07/31 01:20:50;;;;;;;7.10;4.85;;;19.00;99.90;;;;;;1956075;73;21088;-81
2021/07/31 01:23:16;;;;;;;4.78;4.42;;;19.00;99.90;;;;;;1956259;73;21059;-80
2021/07/31 01:25:42;;;;;;;6.20;5.05;;;19.00;99.90;;;;;;1956337;73;21070;-80
2021/07/31 01:28:08;;;;;;;6.53;5.10;;;19.10;99.90;;;;;;1956097;73;21016;-80
2021/07/31 01:30:34;;;;;;;6.42;5.15;;;19.00;99.90;;;;;;1956222;73;21136;-80
2021/07/31 01:33:00;;;;;;;6.30;5.37;;;19.00;99.90;;;;;;1956144;73;21107;-80
2021/07/31 01:35:26;;;;;;;8.58;5.28;;;19.00;99.90;;;;;;1956088;73;21140;-80
2021/07/31 01:37:52;;;;;;;6.53;4.72;;;19.00;99.90;;;;;;1956144;73;21000;-79
2021/07/31 01:40:19;;;;;;;5.95;4.90;;;19.00;99.90;;;;;;1956166;73;21494;-80
2021/07/31 01:42:45;;;;;;;5.75;4.85;;;19.00;99.90;;;;;;1956082;73;21463;-80
2021/07/31 01:45:11;;;;;;;6.40;4.75;;;19.00;99.90;;;;;;1956146;73;21558;-80
2021/07/31 01:47:37;;;;;;;4.97;4.25;;;18.90;99.90;;;;;;1956037;73;21493;-80
2021/07/31 01:50:03;;;;;;;4.75;2.98;;;19.00;99.90;;;;;;1955985;72;21529;-80
2021/07/31 01:52:29;;;;;;;2.52;2.30;;;19.10;99.90;;;;;;1956356;73;21463;-80
2021/07/31 01:54:55;;;;;;;7.87;2.35;;;19.10;99.90;;;;;;1955923;72;21521;-79
2021/07/31 01:57:21;;;;;;;7.40;2.20;;;19.10;99.90;;;;;;1956150;73;21105;-79
2021/07/31 01:59:48;;;;;;;7.35;2.70;;;19.00;99.90;;;;;;1955959;73;21115;-80
2021/07/31 02:02:14;;;;;;;5.50;2.08;;;19.00;99.90;;;;;;1956186;73;21059;-80
2021/07/31 02:04:40;;;;;;;5.62;2.20;;;19.00;99.90;;;;;;1956013;73;21083;-80
2021/07/31 02:07:07;;;;;;;2.02;1.72;;;18.90;99.90;;;;;;1956226;73;21032;-80
2021/07/31 02:09:33;;;;;;;6.17;1.87;;;18.80;99.90;;;;;;1955981;72;21104;-80
2021/07/31 02:11:59;;;;;;;2.17;1.52;;;18.70;99.90;;;;;;1956171;72;21055;-80
2021/07/31 02:14:25;;;;;;;5.53;2.08;;;18.70;99.90;;;;;;1956021;73;21161;-80
2021/07/31 02:16:51;;;;;;;3.62;1.52;;;18.70;99.90;;;;;;1956189;73;21067;-80
2021/07/31 02:19:17;;;;;;;6.17;1.98;;;18.60;99.90;;;;;;1956099;73;21087;-80
2021/07/31 02:21:43;;;;;;;4.72;1.80;;;18.60;99.90;;;;;;1956144;73;21499;-79
2021/07/31 02:24:10;;;;;;;3.15;1.72;;;18.50;99.90;;;;;;1956165;73;21431;-80
2021/07/31 02:26:36;;;;;;;3.72;2.00;;;18.50;99.90;;;;;;1955917;73;21604;-80
2021/07/31 02:29:02;;;;;;;3.17;1.87;;;18.40;99.90;;;;;;1956574;72;21590;-79
2021/07/31 02:31:28;;;;;;;4.85;2.02;;;18.50;99.90;;;;;;1961286;72;21580;-79
2021/07/31 02:33:54;;;;;;;3.25;1.75;;;18.40;99.90;;;;;;1969256;72;21506;-79
2021/07/31 02:36:20;;;;;;;3.90;1.98;;;18.40;99.90;;;;;;1969123;72;21491;-80
2021/07/31 02:38:46;;;;;;;5.75;2.15;;;18.30;99.90;;;;;;1955934;73;21145;-79
2021/07/31 02:41:12;;;;;;;3.83;2.22;;;18.20;99.90;;;;;;1956121;73;21153;-79
2021/07/31 02:43:39;;;;;;;7.50;2.17;;;18.10;99.90;;;;;;1955966;73;21165;-79
2021/07/31 02:46:05;;;;;;;8.18;2.30;;;18.00;99.90;;;;;;1956112;73;21063;-79
2021/07/31 02:48:31;;;;;;;3.60;2.12;;;17.90;99.90;;;;;;1955967;73;21131;-79
2021/07/31 02:50:57;;;;;;;5.55;1.87;;;17.80;99.90;;;;;;1956087;73;21100;-80
2021/07/31 02:53:23;;;;;;;4.08;1.92;;;17.70;99.90;;;;;;1955902;73;21063;-79
2021/07/31 02:55:49;;;;;;;2.92;1.98;;;17.60;99.90;;;;;;1956098;73;21145;-79
2021/07/31 02:58:15;;;;;;;6.25;2.45;;;17.60;99.90;;;;;;1955990;72;21055;-79
2021/07/31 03:00:42;;;;;;;6.33;2.17;;;17.50;99.90;;;;;;1956030;72;21055;-79
2021/07/31 03:03:08;;;;;;;4.25;2.12;;;17.40;99.90;;;;;;1956071;73;21188;-78
2021/07/31 03:05:34;;;;;;;11.55;2.00;;;17.40;99.90;;;;;;1956127;73;21121;-79
2021/07/31 03:08:00;;;;;;;3.62;1.80;;;17.30;99.90;;;;;;1956108;73;21027;-78
2021/07/31 03:10:26;;;;;;;4.83;1.92;;;17.30;99.90;;;;;;1955980;73;21144;-79
2021/07/31 03:12:52;;;;;;;4.45;1.70;;;17.10;99.90;;;;;;1956005;73;21177;-78
2021/07/31 03:15:20;;;;;;;2.50;1.80;;;17.10;99.90;;;;;;1956057;73;21173;-79
2021/07/31 03:17:47;;;;;;;4.10;2.30;;;17.00;99.90;;;;;;1956058;73;21137;-79
2021/07/31 03:20:13;;;;;;;2.27;1.90;;;16.90;99.90;;;;;;1955903;73;21455;-79
2021/07/31 03:22:39;;;;;;;8.00;2.40;;;16.80;99.90;;;;;;1955942;72;21495;-79
2021/07/31 03:25:06;;;;;;;5.20;1.98;;;16.80;99.90;;;;;;1956015;73;21548;-79
2021/07/31 03:27:32;;;;;;;4.20;1.90;;;16.70;99.90;;;;;;1955934;73;21550;-79
2021/07/31 03:29:58;;;;;;;3.15;1.67;;;16.70;99.90;;;;;;1956187;73;21585;-79
2021/07/31 03:32:24;;;;;;;5.35;1.57;;;16.70;99.90;;;;;;1955899;73;21547;-79
2021/07/31 03:34:50;;;;;;;4.42;2.02;;;16.50;99.90;;;;;;1956101;73;21132;-79
2021/07/31 03:37:16;;;;;;;2.65;1.50;;;16.50;99.90;;;;;;1955937;73;21169;-79
2021/07/31 03:39:42;;;;;;;2.95;2.05;;;16.40;99.90;;;;;;1956126;73;21055;-78
2021/07/31 03:42:08;;;;;;;5.75;2.12;;;16.30;99.90;;;;;;1955926;72;21095;-79
2021/07/31 03:44:35;;;;;;;4.15;2.05;;;16.30;99.90;;;;;;1956098;73;21055;-79
2021/07/31 03:47:01;;;;;;;2.80;1.87;;;16.30;99.90;;;;;;1955981;73;21169;-79
2021/07/31 03:49:27;;;;;;;3.50;1.98;;;16.20;99.90;;;;;;1955981;73;21058;-79
2021/07/31 03:51:53;;;;;;;6.50;2.40;;;16.20;99.90;;;;;;1956011;73;21096;-79
2021/07/31 03:54:19;;;;;;;6.10;2.00;;;16.10;99.90;;;;;;1956043;73;21063;-79
2021/07/31 03:56:45;;;;;;;4.45;2.10;;;16.10;99.90;;;;;;1956118;73;21168;-79
2021/07/31 03:59:12;;;;;;;3.17;1.87;;;15.90;99.90;;;;;;1956014;73;21199;-79
2021/07/31 04:01:38;;;;;;;4.55;2.00;;;16.00;99.90;;;;;;1955980;73;21203;-79
2021/07/31 04:04:04;;;;;;;2.87;2.20;;;16.00;99.90;;;;;;1956038;73;21092;-79
2021/07/31 04:06:30;;;;;;;3.58;2.15;;;15.90;99.90;;;;;;1956142;73;21124;-79
2021/07/31 04:08:56;;;;;;;15.70;2.33;;;15.90;99.90;;;;;;1943124;73;21051;-79
2021/07/31 04:11:22;;;;;;;4.28;2.20;;;15.80;99.90;;;;;;1955878;73;21080;-80
2021/07/31 04:13:49;;;;;;;1.57;1.47;;;15.80;99.90;;;;;;1956050;73;21098;-79
2021/07/31 04:16:15;;;;;;;5.12;1.87;;;15.80;99.90;;;;;;1955877;73;21095;-79
2021/07/31 04:18:41;;;;;;;5.22;2.00;;;15.80;99.90;;;;;;1956077;73;21132;-79
2021/07/31 04:21:07;;;;;;;4.83;1.72;;;15.70;99.90;;;;;;1956119;73;21031;-79
2021/07/31 04:23:33;;;;;;;2.95;1.80;;;15.60;99.90;;;;;;1956244;73;21067;-79
2021/07/31 04:25:59;;;;;;;5.97;2.08;;;15.60;99.90;;;;;;1956165;73;21059;-79
2021/07/31 04:28:25;;;;;;;6.08;1.85;;;15.60;99.90;;;;;;1956168;73;21055;-80
2021/07/31 04:30:51;;;;;;;4.00;1.90;;;15.50;99.90;;;;;;1956596;72;21028;-80
2021/07/31 04:33:18;;;;;;;6.00;2.02;;;15.50;99.90;;;;;;1982111;72;21132;-79
2021/07/31 04:35:44;;;;;;;3.05;1.80;;;15.40;99.90;;;;;;1955935;73;21412;-78
2021/07/31 04:38:10;;;;;;;8.33;2.08;;;15.40;99.90;;;;;;1956127;72;21395;-78
2021/07/31 04:40:36;;;;;;;3.98;2.15;;;15.40;99.90;;;;;;1955954;73;21589;-79
2021/07/31 04:43:02;;;;;;;5.47;1.62;;;15.40;99.90;;;;;;1956141;73;21467;-80
2021/07/31 04:45:28;;;;;;;5.17;2.12;;;15.40;99.90;;;;;;1968760;72;21207;-80
2021/07/31 04:47:55;;;;;;;4.37;1.60;;;15.40;99.90;;;;;;1956088;73;21154;-80
2021/07/31 04:50:21;;;;;;;6.72;1.87;;;15.50;99.90;;;;;;1955859;73;21155;-79
2021/07/31 04:52:47;;;;;;;2.92;1.75;;;15.50;99.90;;;;;;1956180;73;21148;-80
2021/07/31 04:55:13;;;;;;;3.65;2.02;;;15.50;99.90;;;;;;1956113;73;21091;-79
2021/07/31 04:57:39;;;;;;;7.83;1.85;;;15.50;99.90;;;;;;1956393;73;21540;-79
2021/07/31 05:00:05;;;;;;;2.83;1.40;;;15.50;99.90;;;;;;1956168;73;21501;-79
2021/07/31 05:02:32;;;;;;;3.25;1.45;;;15.50;99.90;;;;;;1956402;72;21589;-79
2021/07/31 05:04:58;;;;;;;4.25;1.87;;;15.60;99.90;;;;;;1956188;72;21146;-79
2021/07/31 05:07:25;;;;;;;2.52;1.52;;;15.60;99.90;;;;;;1958584;73;21028;-79
2021/07/31 05:09:51;;;;;;;3.65;1.82;;;15.60;99.90;;;;;;1967293;72;21082;-79
2021/07/31 05:12:17;;;;;;;5.05;1.85;;;15.60;99.90;;;;;;1958603;72;21133;-79
2021/07/31 05:14:43;;;;;;;3.05;1.55;;;15.60;99.90;;;;;;1956169;73;21178;-79
2021/07/31 05:17:09;;;;;;;7.05;2.02;;;15.70;99.90;;;;;;1956126;73;21084;-79
2021/07/31 05:19:35;;;;;;;1.92;1.65;;;15.80;99.90;;;;;;1956130;73;21556;-80
2021/07/31 05:22:01;;;;;;;3.58;1.75;;;15.80;99.90;;;;;;1956202;73;21530;-80
2021/07/31 05:24:27;;;;;;;1.60;1.50;;;15.90;99.90;;;;;;1956171;73;21531;-79
2021/07/31 05:26:54;;;;;;;5.35;1.77;;;15.90;99.90;;;;;;1956156;73;21084;-79
2021/07/31 05:29:20;;;;;;;8.05;1.92;;;16.00;99.90;;;;;;1956087;73;21133;-79
2021/07/31 05:31:46;;;;;;;5.42;2.00;;;16.00;99.90;;;;;;1958432;72;21108;-79
2021/07/31 05:34:12;;;;;;;4.03;1.77;;;16.10;99.90;;;;;;1959681;72;21032;-80
2021/07/31 05:36:39;;;;;;;1.92;1.45;;;16.10;99.90;;;;;;1957513;72;21200;-78
2021/07/31 05:39:06;;;;;;;4.78;1.62;;;16.10;99.90;;;;;;1956174;72;21100;-79
2021/07/31 05:41:32;;;;;;;4.25;1.60;;;16.20;99.90;;;;;;1956127;73;21599;-79
2021/07/31 05:43:58;;;;;;;3.00;1.55;;;16.20;99.90;;;;;;1956184;73;21487;-80
2021/07/31 05:46:24;;;;;;;3.47;1.62;;;16.30;99.90;;;;;;1956134;73;21561;-78
2021/07/31 05:48:50;;;;;;;3.45;1.65;;;16.40;99.90;;;;;;1956130;73;21459;-78
2021/07/31 05:51:17;;;;;;;3.25;1.65;;;16.40;99.90;;;;;;1956168;73;21135;-78
2021/07/31 05:53:43;;;;;;;3.67;1.77;;;16.60;99.90;;;;;;1956205;73;21145;-78
2021/07/31 05:56:09;;;;;;;2.80;1.65;;;16.60;99.90;;;;;;1956198;73;21140;-78
2021/07/31 05:58:35;;;;;;;9.80;1.62;;;16.80;99.90;;;;;;1956142;73;21091;-78
2021/07/31 06:01:01;;;;;;;5.33;2.02;;;17.00;99.90;;;;;;1956224;73;21140;-78
2021/07/31 06:03:27;;;;;;;8.50;1.62;;;17.10;99.90;;;;;;1956157;72;21096;-81
2021/07/31 06:05:53;;;;;;;5.35;1.60;;;17.30;99.90;;;;;;1956093;73;21169;-78
2021/07/31 06:08:20;;;;;;;2.72;1.10;;;17.50;99.90;;;;;;1942918;73;21136;-78
2021/07/31 06:10:47;;;;;;;4.25;1.52;;;17.60;99.90;;;;;;1956038;73;21059;-78
2021/07/31 06:13:13;;;;;;;14.55;1.55;;;17.90;99.90;;;;;;1956206;72;21067;-78
2021/07/31 06:15:41;;;;;;;4.83;1.60;;;18.10;99.90;;;;;;1956139;73;21128;-78
2021/07/31 06:18:07;;;;;;;2.27;1.40;;;18.30;99.90;;;;;;1956134;73;21099;-78
2021/07/31 06:20:33;;;;;;;7.80;1.90;;;18.40;99.90;;;;;;1956112;73;21067;-78
2021/07/31 06:22:59;;;;;;;9.03;1.80;;;18.50;99.90;;;;;;1956086;73;21139;-78
2021/07/31 06:25:25;;;;;;;7.17;1.67;;;18.50;99.90;;;;;;1956177;73;21059;-78
2021/07/31 06:27:51;;;;;;;12.78;1.52;;;18.70;99.90;;;;;;1956153;73;21059;-78
2021/07/31 06:30:17;;;;;;;3.50;1.70;;;18.90;99.90;;;;;;1956217;73;21071;-78
2021/07/31 06:32:44;;;;;;;4.53;1.62;;;19.30;99.90;;;;;;1956275;73;21024;-78
2021/07/31 06:35:10;;;;;;;4.90;1.60;;;19.70;99.90;;;;;;1956083;73;21032;-78
2021/07/31 06:37:36;;;;;;;6.17;1.30;;;20.30;99.90;;;;;;1956020;73;21507;-79
2021/07/31 06:40:02;;;;;;;3.20;1.35;;;21.10;99.90;;;;;;1956231;72;21499;-79
2021/07/31 06:42:28;;;;;;;4.50;1.80;;;21.70;99.90;;;;;;1956100;73;21578;-79
2021/07/31 06:44:54;;;;;;;4.03;1.50;;;22.30;99.90;;;;;;1956101;73;21420;-77
2021/07/31 06:47:20;;;;;;;6.50;1.20;;;22.70;99.90;;;;;;1956033;72;21528;-80
2021/07/31 06:49:47;;;;;;;4.58;1.30;;;23.90;99.90;;;;;;1956033;73;21535;-80
2021/07/31 06:52:13;;;;;;;2.30;1.32;;;23.70;99.90;;;;;;1956190;73;21483;-78
2021/07/31 06:54:39;;;;;;;4.85;1.30;;;24.60;99.90;;;;;;1956100;73;21091;-79
2021/07/31 06:57:06;;;;;;;3.60;1.20;;;24.50;99.90;;;;;;1956154;73;21020;-79
2021/07/31 06:59:32;;;;;;;2.83;1.20;;;24.00;99.90;;;;;;1956185;73;21140;-79
2021/07/31 07:01:58;;;;;;;4.97;1.20;;;23.50;99.90;;;;;;1956099;72;21099;-79
2021/07/31 07:04:24;;;;;;;8.63;1.47;;;23.60;99.90;;;;;;1956090;72;21092;-80
2021/07/31 07:06:50;;;;;;;4.12;1.60;;;23.80;99.90;;;;;;1956209;73;21143;-80
2021/07/31 07:09:16;;;;;;;2.72;1.12;;;24.60;99.90;;;;;;1956058;72;21055;-80
2021/07/31 07:11:43;;;;;;;1.90;1.10;;;24.60;99.90;;;;;;1956197;73;21071;-79
2021/07/31 07:14:09;;;;;;;13.30;1.75;;;24.70;99.90;;;;;;1956105;72;21208;-79
2021/07/31 07:16:35;;;;;;;5.85;1.20;;;24.60;99.90;;;;;;1956080;73;21080;-80
2021/07/31 07:19:02;;;;;;;1.57;1.02;;;24.80;99.90;;;;;;1956002;73;21064;-80
2021/07/31 07:21:28;;;;;;;2.95;1.17;;;25.10;99.90;;;;;;1955579;73;21136;-80
2021/07/31 07:23:54;;;;;;;5.12;1.52;;;25.30;99.90;;;;;;1956012;73;21057;-80
2021/07/31 07:26:20;;;;;;;10.40;1.22;;;24.70;99.90;;;;;;1960649;73;21185;-81
2021/07/31 07:28:46;;;;;;;3.95;1.55;;;24.80;99.90;;;;;;1966085;72;21107;-80
2021/07/31 07:31:12;;;;;;;2.30;1.10;;;23.10;99.90;;;;;;1958710;72;21180;-81
2021/07/31 07:33:38;;;;;;;3.85;1.17;;;23.20;99.90;;;;;;1972191;71;21082;-79
2021/07/31 07:36:05;;;;;;;9.13;1.17;;;23.80;99.90;;;;;;1980228;72;21039;-80
2021/07/31 07:38:58;;;;;;;2.47;1.20;;;24.50;99.90;;;;;;2048433;69;22207;-80
2021/07/31 07:41:24;;;;;;;3.95;1.20;;;24.30;99.90;;;;;;2012629;70;21076;-80
2021/07/31 07:43:50;;;;;;;7.33;1.57;;;23.40;99.90;;;;;;1967704;72;21099;-79
2021/07/31 07:46:16;;;;;;;3.58;1.60;;;23.30;99.90;;;;;;2008533;70;21075;-79
2021/07/31 07:48:42;;;;;;;3.33;1.20;;;22.80;99.90;;;;;;2013387;70;21051;-79
2021/07/31 07:51:08;;;;;;;3.40;1.70;;;22.00;99.90;;;;;;2008345;70;21039;-79
2021/07/31 07:53:34;;;;;;;4.80;1.70;;;22.60;99.90;;;;;;2008880;70;21059;-80
2021/07/31 07:56:00;;;;;;;5.00;1.50;;;22.60;99.90;;;;;;2007559;70;21134;-79
2021/07/31 07:58:27;;;;;;;1.95;1.25;;;22.00;99.90;;;;;;2007593;70;21047;-79
2021/07/31 08:00:53;;;;;;;6.12;1.20;;;21.90;99.90;;;;;;2013687;71;21143;-79
2021/07/31 08:03:19;;;;;;;3.20;1.40;;;22.40;99.90;;;;;;2006857;70;21047;-80
2021/07/31 08:05:45;;;;;;;5.22;1.17;;;22.70;99.90;;;;;;2010871;70;21029;-80
2021/07/31 08:08:11;;;;;;;4.00;1.30;;;23.00;99.90;;;;;;2006914;70;21042;-80
2021/07/31 08:10:37;;;;;;;2.47;1.37;;;23.20;99.90;;;;;;2014003;70;21439;-80
2021/07/31 08:13:05;;;;;;;5.50;1.30;;;23.60;99.90;;;;;;2014636;71;21496;-80
2021/07/31 08:15:31;;;;;;;5.10;1.37;;;23.30;99.90;;;;;;2011005;71;21135;-80
2021/07/31 08:17:57;;;;;;;14.73;1.37;;;23.30;99.90;;;;;;2010989;70;21052;-79
2021/07/31 08:20:23;;;;;;;3.98;1.45;;;23.30;99.90;;;;;;2007329;70;21086;-80
2021/07/31 08:22:49;;;;;;;7.55;1.27;;;23.30;99.90;;;;;;1970637;72;21113;-79
2021/07/31 08:25:15;;;;;;;2.72;1.30;;;23.50;99.90;;;;;;2012645;70;21051;-78
2021/07/31 08:27:41;;;;;;;4.97;1.10;;;23.10;99.90;;;;;;1963242;72;21067;-79
2021/07/31 08:30:07;;;;;;;2.52;1.32;;;22.40;99.90;;;;;;1931932;74;21056;-78
2021/07/31 08:32:34;;;;;;;4.20;1.40;;;22.50;99.90;;;;;;2009252;70;21059;-79
2021/07/31 08:35:03;;;;;;;3.42;1.57;;;22.00;99.90;;;;;;2012330;71;21128;-79
2021/07/31 08:37:29;;;;;;;2.80;1.15;;;22.20;99.90;;;;;;2011239;70;21137;-81
2021/07/31 08:39:56;;;;;;;4.47;1.40;;;22.10;99.90;;;;;;2014278;70;21017;-79
2021/07/31 08:42:22;;;;;;;3.22;1.40;;;21.90;99.90;;;;;;2008607;70;21089;-79
2021/07/31 08:44:48;;;;;;;5.80;1.22;;;22.00;99.90;;;;;;1963909;72;21056;-79
2021/07/31 08:47:14;;;;;;;4.92;1.45;;;22.50;99.90;;;;;;2007717;70;21181;-79
2021/07/31 08:49:40;;;;;;;1.62;1.15;;;22.60;99.90;;;;;;2008002;70;21079;-79
2021/07/31 08:52:07;;;;;;;8.13;1.25;;;22.90;99.90;;;;;;1960736;72;21054;-78
2021/07/31 08:54:33;;;;;;;5.42;1.65;;;23.50;99.90;;;;;;1928718;73;21158;-78
2021/07/31 08:56:59;;;;;;;4.03;1.07;;;23.60;99.90;;;;;;1927948;73;21084;-79
2021/07/31 08:59:25;;;;;;;6.53;1.40;;;23.70;99.90;;;;;;2009644;70;21051;-79
2021/07/31 09:01:51;;;;;;;2.12;1.20;;;23.50;99.90;;;;;;1963575;72;21151;-79
2021/07/31 09:04:17;;;;;;;2.17;1.20;;;23.40;99.90;;;;;;1931603;73;21062;-79
2021/07/31 09:06:48;;;;;;;2.47;1.12;;;23.20;99.90;;;;;;2008792;70;21130;-79
2021/07/31 09:09:11;;;;;;;2.90;1.07;;;22.90;99.90;;;;;;2016349;70;21119;-78
2021/07/31 09:11:37;;;;;;;6.53;1.22;;;23.00;99.90;;;;;;2008573;70;21019;-79
2021/07/31 09:14:03;;;;;;;3.65;1.35;;;23.00;99.90;;;;;;2023229;70;21052;-79
2021/07/31 09:16:30;;;;;;;2.08;1.05;;;23.50;99.90;;;;;;2006907;70;21109;-79
2021/07/31 09:18:56;;;;;;;4.17;1.10;;;23.90;99.90;;;;;;2013486;70;21116;-79
2021/07/31 09:21:22;;;;;;;3.85;1.45;;;23.70;99.90;;;;;;2013454;70;21013;-78
2021/07/31 09:23:48;;;;;;;4.65;1.27;;;23.60;99.90;;;;;;2013489;70;21113;-79
2021/07/31 09:26:14;;;;;;;5.42;1.25;;;23.80;99.90;;;;;;2008827;70;21121;-78
2021/07/31 09:28:41;;;;;;;6.22;1.40;;;23.70;99.90;;;;;;1962942;72;21042;-79
2021/07/31 09:31:07;;;;;;;6.15;1.32;;;24.00;99.90;;;;;;2010560;71;21097;-79
2021/07/31 09:33:33;;;;;;;3.27;1.10;;;24.30;99.90;;;;;;2010193;71;21036;-80
2021/07/31 09:35:59;;;;;;;4.08;1.10;;;24.60;99.90;;;;;;2006933;70;21111;-79
2021/07/31 09:38:25;;;;;;;3.30;1.32;;;24.80;99.90;;;;;;2007513;70;21113;-79
2021/07/31 09:40:51;;;;;;;2.62;1.12;;;24.50;99.90;;;;;;1971734;72;21062;-79
2021/07/31 09:43:17;;;;;;;2.40;1.05;;;24.10;99.90;;;;;;1941812;73;21059;-79
2021/07/31 09:45:43;;;;;;;4.92;1.20;;;24.60;99.90;;;;;;1933357;73;21126;-79
2021/07/31 09:48:09;;;;;;;2.42;1.07;;;24.40;99.90;;;;;;1980211;71;21105;-79
2021/07/31 09:50:36;;;;;;;2.90;1.02;;;24.30;99.90;;;;;;1972768;72;21137;-79
2021/07/31 09:53:02;;;;;;;4.03;1.27;;;24.40;99.90;;;;;;1972925;72;21568;-79
2021/07/31 09:55:29;;;;;;;6.78;1.10;;;24.50;99.90;;;;;;1974429;72;21429;-79
2021/07/31 09:57:55;;;;;;;1.82;1.05;;;24.10;99.90;;;;;;1974399;72;21507;-79
2021/07/31 10:00:21;;;;;;;2.35;1.25;;;24.80;99.90;;;;;;1974482;73;21535;-78
2021/07/31 10:02:47;;;;;;;3.15;1.05;;;25.00;99.90;;;;;;1973316;71;21115;-80
2021/07/31 10:05:14;;;;;;;4.25;1.27;;;24.60;99.90;;;;;;1982116;71;21056;-79
2021/07/31 10:07:40;;;;;;;2.90;1.10;;;24.50;99.90;;;;;;1971971;71;21069;-78
2021/07/31 10:10:06;;;;;;;2.20;0.85;;;24.40;99.90;;;;;;1978659;72;21491;-78
2021/07/31 10:12:34;;;;;;;1.72;1.05;;;25.00;99.90;;;;;;1971406;72;21430;-79
2021/07/31 10:15:00;;;;;;;2.30;1.00;;;25.60;99.90;;;;;;1974877;72;21077;-79
2021/07/31 10:17:26;;;;;;;2.37;1.30;;;25.00;99.90;;;;;;1968389;72;21482;-79
2021/07/31 10:19:52;;;;;;;4.37;0.85;;;25.20;99.90;;;;;;1972574;72;21063;-79
2021/07/31 10:22:19;;;;;;;2.85;1.05;;;25.30;99.90;;;;;;1980422;72;21032;-79
2021/07/31 10:24:45;;;;;;;2.00;0.90;;;25.20;99.90;;;;;;1973278;72;21051;-78
2021/07/31 10:27:11;;;;;;;5.83;1.00;;;25.10;99.90;;;;;;1974596;72;21175;-79
2021/07/31 10:29:37;;;;;;;1.00;0.90;;;25.00;99.90;;;;;;1968626;72;21066;-78
2021/07/31 10:32:05;;;;;;;6.00;0.85;;;24.80;99.90;;;;;;1985120;72;21136;-79
2021/07/31 10:34:31;;;;;;;2.90;1.17;;;25.10;99.90;;;;;;1966745;72;21074;-78
2021/07/31 10:36:57;;;;;;;3.58;0.98;;;24.90;99.90;;;;;;1981062;72;21110;-79
2021/07/31 10:39:23;;;;;;;2.52;1.10;;;25.00;99.90;;;;;;1966271;72;21059;-79
2021/07/31 10:41:50;;;;;;;3.12;1.20;;;25.30;99.90;;;;;;1974636;73;21043;-80
2021/07/31 10:44:16;;;;;;;4.60;1.20;;;25.60;99.90;;;;;;1966000;72;21059;-80
2021/07/31 10:46:42;;;;;;;6.30;1.12;;;25.50;99.90;;;;;;1972507;72;21058;-80
2021/07/31 10:49:08;;;;;;;1.75;0.80;;;25.70;99.90;;;;;;1979182;72;21136;-80
2021/07/31 10:51:34;;;;;;;2.25;1.10;;;25.10;99.90;;;;;;1972430;72;21027;-79
2021/07/31 10:54:00;;;;;;;2.62;1.07;;;25.60;99.90;;;;;;1972009;72;21117;-79
2021/07/31 10:56:26;;;;;;;4.37;1.35;;;26.30;99.90;;;;;;1972373;72;21067;-80
2021/07/31 10:58:52;;;;;;;2.75;1.10;;;26.60;99.90;;;;;;1973539;72;21059;-80
2021/07/31 11:01:19;;;;;;;1.98;0.93;;;26.50;99.90;;;;;;1985024;72;21012;-80
2021/07/31 11:03:45;;;;;;;3.20;1.00;;;26.30;99.90;;;;;;1974510;72;21467;-79
2021/07/31 11:06:12;;;;;;;1.37;0.85;;;26.30;99.90;;;;;;1971205;72;21109;-79
2021/07/31 11:08:38;;;;;;;2.00;1.15;;;26.70;99.90;;;;;;1964360;72;21070;-79
2021/07/31 11:11:04;;;;;;;1.72;1.00;;;26.20;99.90;;;;;;1973425;72;21121;-80
2021/07/31 11:13:30;;;;;;;3.52;1.20;;;25.80;99.90;;;;;;1968559;72;21231;-79
2021/07/31 11:16:02;;;;;;;2.12;0.90;;;25.20;99.90;;;;;;1989012;72;21527;-78
2021/07/31 11:18:24;;;;;;;0.90;0.75;;;25.50;99.90;;;;;;1973171;72;21079;-78
2021/07/31 11:20:50;;;;;;;2.02;0.90;;;25.90;99.90;;;;;;1974608;73;21082;-78
2021/07/31 11:23:18;;;;;;;2.70;1.17;;;25.80;99.90;;;;;;1972398;72;21024;-79
2021/07/31 11:25:44;;;;;;;1.70;0.90;;;26.10;99.90;;;;;;1982118;72;21043;-79
2021/07/31 11:28:10;;;;;;;3.47;0.88;;;26.30;99.90;;;;;;1976064;72;21066;-79
2021/07/31 11:30:36;;;;;;;7.22;1.12;;;26.30;99.90;;;;;;1979053;72;21128;-78
2021/07/31 11:33:02;;;;;;;2.62;0.95;;;26.20;99.90;;;;;;1971118;72;21133;-79
2021/07/31 11:35:28;;;;;;;1.70;0.95;;;25.80;99.90;;;;;;1974455;73;21052;-79
2021/07/31 11:37:54;;;;;;;1.25;0.95;;;25.80;99.90;;;;;;1971091;72;21071;-79
2021/07/31 11:40:21;;;;;;;5.35;0.98;;;26.00;99.90;;;;;;1971115;72;21125;-79
2021/07/31 11:42:47;;;;;;;3.35;1.10;;;26.20;99.90;;;;;;1967464;72;21046;-79
2021/07/31 11:45:13;;;;;;;2.00;1.12;;;26.10;99.90;;;;;;1971340;72;21053;-79
2021/07/31 11:47:39;;;;;;;2.08;1.10;;;25.20;99.90;;;;;;1977360;72;21060;-79
2021/07/31 11:50:05;;;;;;;1.40;0.90;;;25.20;99.90;;;;;;1983966;72;21058;-79
2021/07/31 11:52:31;;;;;;;2.67;0.93;;;25.70;99.90;;;;;;1971861;72;21091;-79
2021/07/31 11:54:57;;;;;;;2.00;1.00;;;26.10;99.90;;;;;;1972996;72;21110;-79
2021/07/31 11:57:23;;;;;;;5.05;1.20;;;25.90;99.90;;;;;;1972039;72;21129;-80
2021/07/31 11:59:51;;;;;;;4.17;1.22;;;26.10;99.90;;;;;;1981343;72;21105;-81
2021/07/31 12:02:17;;;;;;;2.40;0.90;;;26.00;99.90;;;;;;1976269;72;21056;-79
2021/07/31 12:04:43;;;;;;;4.70;1.00;;;26.50;99.90;;;;;;1974511;73;21138;-81
2021/07/31 12:07:10;;;;;;;6.65;1.10;;;26.80;99.90;;;;;;1974640;72;21222;-80
2021/07/31 12:09:37;;;;;;;6.10;1.10;;;27.00;99.90;;;;;;1974690;73;21052;-81
2021/07/31 12:12:05;;;;;;;3.47;1.00;;;26.60;99.90;;;;;;1980346;72;21128;-80
2021/07/31 12:14:31;;;;;;;2.95;1.00;;;26.60;99.90;;;;;;1974382;72;21121;-81
2021/07/31 12:16:57;;;;;;;2.22;0.90;;;26.30;99.90;;;;;;1972710;72;21032;-80
2021/07/31 12:19:26;;;;;;;1.77;1.27;;;26.90;99.90;;;;;;1974548;73;21133;-80
2021/07/31 12:21:51;;;;;;;2.00;1.00;;;26.90;99.50;;;;;;1980612;72;21486;-79
2021/07/31 12:24:17;;;;;;;3.65;0.80;;;26.90;99.50;;;;;;1971358;72;21534;-79
2021/07/31 12:26:44;;;;;;;2.37;1.20;;;27.50;98.90;;;;;;1971325;72;21512;-78
2021/07/31 12:29:10;;;;;;;2.55;1.20;;;28.20;98.80;;;;;;1973687;72;21074;-79
2021/07/31 12:31:38;;;;;;;2.80;1.30;;;28.70;97.10;;;;;;1976341;72;21087;-80
2021/07/31 12:34:04;;;;;;;2.52;1.17;;;29.00;96.60;;;;;;1969810;72;21063;-80
2021/07/31 12:36:30;;;;;;;3.85;1.50;;;28.90;96.70;;;;;;1976643;72;21084;-79
2021/07/31 12:38:57;;;;;;;2.95;1.00;;;29.30;95.00;;;;;;1967550;72;21063;-80